createdAt,value
2022-10-23T05:46:39.321Z,0.00
2022-10-23T05:47:39.282Z,0.00
2022-10-23T05:48:39.264Z,0.00
2022-10-23T05:49:39.298Z,0.00
2022-10-23T05:50:39.245Z,0.00
2022-10-23T05:51:39.236Z,0.00
2022-10-23T05:52:39.219Z,5.62
2022-10-23T05:53:41.797Z,5.62
2022-10-23T05:54:39.219Z,5.62
2022-10-23T05:55:39.190Z,5.62
2022-10-23T05:56:39.178Z,5.62
2022-10-23T05:57:39.191Z,5.62
2022-10-23T05:58:39.166Z,5.62
2022-10-23T05:59:39.141Z,5.62
2022-10-23T06:00:39.779Z,5.62
2022-10-23T06:01:39.296Z,11.25
2022-10-23T06:02:39.159Z,11.25
2022-10-23T06:03:39.124Z,11.25
2022-10-23T06:04:39.091Z,11.25
2022-10-23T06:06:39.081Z,11.25
2022-10-23T06:07:39.058Z,11.25
2022-10-23T06:08:39.059Z,11.25
2022-10-23T06:09:39.049Z,16.88
2022-10-23T06:10:39.042Z,16.88
2022-10-23T06:11:39.035Z,16.88
2022-10-23T06:12:39.005Z,16.88
2022-10-23T06:13:38.996Z,16.88
2022-10-23T06:14:38.984Z,16.88
2022-10-23T06:15:38.986Z,16.88
2022-10-23T06:16:38.956Z,16.88
2022-10-23T06:17:38.949Z,16.88
2022-10-23T06:18:38.961Z,16.88
2022-10-23T06:19:38.941Z,16.88
2022-10-23T06:20:38.957Z,22.50
2022-10-23T06:21:38.907Z,22.50
2022-10-23T06:22:38.903Z,22.50
2022-10-23T06:23:38.884Z,22.50
2022-10-23T06:24:38.899Z,22.50
2022-10-23T06:25:38.870Z,22.50
2022-10-23T06:26:38.884Z,22.50
2022-10-23T06:27:38.844Z,28.12
2022-10-23T06:28:38.837Z,22.50
2022-10-23T06:29:38.820Z,22.50
2022-10-23T06:31:39.009Z,28.12
2022-10-23T06:32:38.808Z,28.12
2022-10-23T06:33:38.804Z,28.12
2022-10-23T06:34:38.807Z,28.12
2022-10-23T06:35:39.486Z,33.75
2022-10-23T06:36:39.228Z,39.38
2022-10-23T06:37:38.780Z,39.38
2022-10-23T06:38:38.783Z,45.00
2022-10-23T06:39:38.712Z,45.00
2022-10-23T06:40:38.699Z,45.00
2022-10-23T06:41:38.710Z,45.00
2022-10-23T06:42:38.679Z,45.00
2022-10-23T06:43:38.678Z,50.62
2022-10-23T06:44:38.664Z,56.25
2022-10-23T06:45:38.649Z,56.25
2022-10-23T06:46:38.635Z,56.25
2022-10-23T06:47:38.645Z,56.25
2022-10-23T06:48:38.630Z,56.25
2022-10-23T06:49:38.621Z,56.25
2022-10-23T06:50:38.611Z,56.25
2022-10-23T06:51:38.584Z,61.88
2022-10-23T06:52:47.410Z,61.88
2022-10-23T06:53:39.584Z,56.25
2022-10-23T06:54:38.565Z,56.25
2022-10-23T06:56:38.538Z,61.88
2022-10-23T06:57:38.537Z,56.25
2022-10-23T06:58:38.523Z,61.88
2022-10-23T06:59:38.502Z,61.88
2022-10-23T07:00:38.548Z,61.88
2022-10-23T07:01:38.751Z,61.88
2022-10-23T07:02:38.471Z,61.88
2022-10-23T07:03:38.464Z,61.88
2022-10-23T07:04:38.439Z,61.88
2022-10-23T07:05:38.441Z,61.88
2022-10-23T07:06:38.457Z,61.88
2022-10-23T07:07:38.409Z,61.88
2022-10-23T07:08:38.419Z,61.88
2022-10-23T07:09:38.412Z,67.50
2022-10-23T07:10:38.411Z,61.88
2022-10-23T07:11:38.368Z,61.88
2022-10-23T07:12:38.359Z,67.50
2022-10-23T07:13:38.354Z,67.50
2022-10-23T07:14:38.354Z,67.50
2022-10-23T07:15:38.345Z,67.50
2022-10-23T07:16:38.311Z,67.50
2022-10-23T07:17:38.300Z,73.12
2022-10-23T07:18:38.428Z,78.75
2022-10-23T07:19:38.287Z,90.00
2022-10-23T07:20:38.280Z,95.62
2022-10-23T07:21:38.281Z,101.25
2022-10-23T07:22:38.277Z,101.25
2022-10-23T07:23:38.235Z,101.25
2022-10-23T07:24:38.228Z,101.25
2022-10-23T07:25:38.233Z,101.25
2022-10-23T07:26:38.265Z,101.25
2022-10-23T07:27:38.233Z,106.88
2022-10-23T07:28:38.179Z,112.50
2022-10-23T07:29:38.172Z,112.50
2022-10-23T07:30:38.224Z,118.12
2022-10-23T07:31:38.157Z,118.12
2022-10-23T07:32:38.149Z,118.12
2022-10-23T07:33:38.127Z,118.12
2022-10-23T07:34:38.127Z,118.12
2022-10-23T07:35:39.331Z,118.12
2022-10-23T07:36:38.117Z,118.12
2022-10-23T07:37:38.086Z,118.12
2022-10-23T07:38:38.094Z,118.12
2022-10-23T07:39:38.077Z,118.12
2022-10-23T07:40:38.060Z,123.75
2022-10-23T07:41:38.062Z,118.12
2022-10-23T07:42:38.044Z,118.12
2022-10-23T07:43:38.024Z,123.75
2022-10-23T07:44:38.009Z,123.75
2022-10-23T07:45:38.000Z,129.38
2022-10-23T07:46:38.013Z,129.38
2022-10-23T07:47:37.986Z,129.38
2022-10-23T07:48:37.970Z,135.00
2022-10-23T07:49:37.980Z,135.00
2022-10-23T07:50:37.955Z,140.62
2022-10-23T07:51:37.944Z,146.25
2022-10-23T07:52:37.926Z,151.88
2022-10-23T07:53:37.948Z,151.88
2022-10-23T07:54:37.921Z,157.50
2022-10-23T07:55:37.914Z,157.50
2022-10-23T07:56:37.900Z,157.50
2022-10-23T07:57:37.879Z,157.50
2022-10-23T07:58:37.886Z,151.88
2022-10-23T07:59:38.102Z,151.88
2022-10-23T08:00:37.838Z,151.88
2022-10-23T08:01:37.963Z,151.88
2022-10-23T08:02:37.876Z,151.88
2022-10-23T08:03:37.814Z,146.25
2022-10-23T08:04:37.797Z,146.25
2022-10-23T08:05:37.792Z,140.62
2022-10-23T08:06:37.785Z,140.62
2022-10-23T08:07:37.780Z,140.62
2022-10-23T08:08:37.786Z,140.62
2022-10-23T08:09:37.752Z,151.88
2022-10-23T08:10:37.747Z,146.25
2022-10-23T08:11:37.726Z,146.25
2022-10-23T08:12:37.731Z,151.88
2022-10-23T08:13:37.696Z,157.50
2022-10-23T08:14:37.693Z,163.12
2022-10-23T08:15:37.680Z,163.12
2022-10-23T08:16:37.691Z,163.12
2022-10-23T08:17:37.691Z,163.12
2022-10-23T08:18:37.651Z,174.38
2022-10-23T08:19:37.637Z,174.38
2022-10-23T08:20:37.632Z,185.62
2022-10-23T08:21:37.618Z,213.75
2022-10-23T08:22:37.609Z,264.38
2022-10-23T08:23:37.596Z,455.62
2022-10-23T08:24:37.574Z,635.62
2022-10-23T08:25:37.612Z,708.75
2022-10-23T08:26:37.584Z,765.00
2022-10-23T08:27:37.557Z,770.62
2022-10-23T08:28:37.534Z,787.50
2022-10-23T08:29:37.541Z,810.00
2022-10-23T08:30:37.520Z,804.38
2022-10-23T08:31:37.535Z,815.62
2022-10-23T08:32:37.501Z,787.50
2022-10-23T08:33:37.558Z,821.25
2022-10-23T08:34:37.477Z,849.38
2022-10-23T08:35:37.461Z,838.12
2022-10-23T08:36:37.451Z,798.75
2022-10-23T08:37:37.463Z,810.00
2022-10-23T08:38:37.444Z,804.38
2022-10-23T08:39:37.459Z,781.88
2022-10-23T08:40:37.404Z,843.75
2022-10-23T08:41:37.415Z,855.00
2022-10-23T08:42:37.407Z,905.62
2022-10-23T08:43:37.402Z,798.75
2022-10-23T08:44:37.375Z,731.25
2022-10-23T08:45:37.360Z,736.88
2022-10-23T08:46:37.350Z,697.50
2022-10-23T08:47:37.340Z,534.38
2022-10-23T08:48:37.322Z,573.75
2022-10-23T08:49:37.349Z,427.50
2022-10-23T08:50:37.311Z,331.88
2022-10-23T08:51:37.296Z,258.75
2022-10-23T08:52:37.305Z,320.62
2022-10-23T08:53:37.314Z,303.75
2022-10-23T08:54:37.317Z,264.38
2022-10-23T08:55:37.254Z,247.50
2022-10-23T08:56:37.255Z,253.12
2022-10-23T08:57:40.076Z,230.62
2022-10-23T08:58:38.246Z,196.88
2022-10-23T08:59:37.221Z,219.38
2022-10-23T09:00:37.270Z,241.88
2022-10-23T09:01:37.286Z,225.00
2022-10-23T09:02:37.176Z,225.00
2022-10-23T09:03:37.206Z,208.12
2022-10-23T09:04:37.173Z,225.00
2022-10-23T09:05:37.175Z,292.50
2022-10-23T09:06:37.143Z,427.50
2022-10-23T09:07:37.145Z,427.50
2022-10-23T09:08:37.130Z,286.88
2022-10-23T09:09:37.161Z,213.75
2022-10-23T09:10:37.130Z,185.62
2022-10-23T09:11:37.085Z,174.38
2022-10-23T09:12:37.078Z,163.12
2022-10-23T09:13:37.093Z,163.12
2022-10-23T09:14:37.077Z,163.12
2022-10-23T09:15:37.042Z,168.75
2022-10-23T09:16:37.041Z,196.88
2022-10-23T09:17:37.022Z,236.25
2022-10-23T09:18:37.019Z,236.25
2022-10-23T09:19:37.014Z,191.25
2022-10-23T09:20:37.025Z,185.62
2022-10-23T09:21:36.979Z,180.00
2022-10-23T09:22:36.975Z,185.62
2022-10-23T09:23:36.962Z,213.75
2022-10-23T09:24:36.964Z,185.62
2022-10-23T09:25:36.930Z,174.38
2022-10-23T09:26:36.935Z,174.38
2022-10-23T09:27:36.910Z,174.38
2022-10-23T09:28:36.917Z,196.88
2022-10-23T09:29:36.903Z,208.12
2022-10-23T09:30:36.988Z,225.00
2022-10-23T09:31:36.891Z,247.50
2022-10-23T09:32:36.874Z,298.12
2022-10-23T09:33:43.561Z,303.75
2022-10-23T09:34:36.852Z,258.75
2022-10-23T09:35:36.829Z,264.38
2022-10-23T09:36:36.857Z,298.12
2022-10-23T09:37:36.806Z,303.75
2022-10-23T09:38:36.808Z,292.50
2022-10-23T09:39:36.802Z,354.38
2022-10-23T09:40:36.780Z,354.38
2022-10-23T09:41:36.766Z,281.25
2022-10-23T09:42:36.770Z,264.38
2022-10-23T09:43:36.754Z,213.75
2022-10-23T09:44:36.747Z,219.38
2022-10-23T09:45:36.718Z,253.12
2022-10-23T09:46:36.783Z,354.38
2022-10-23T09:47:36.702Z,230.62
2022-10-23T09:48:36.698Z,337.50
2022-10-23T09:49:36.676Z,275.62
2022-10-23T09:50:36.694Z,208.12
2022-10-23T09:51:36.673Z,208.12
2022-10-23T09:52:36.649Z,196.88
2022-10-23T09:53:36.664Z,174.38
2022-10-23T09:54:36.638Z,163.12
2022-10-23T09:55:36.627Z,151.88
2022-10-23T09:56:36.704Z,135.00
2022-10-23T09:57:36.617Z,135.00
2022-10-23T09:58:36.650Z,129.38
2022-10-23T09:59:36.565Z,129.38
2022-10-23T10:00:36.637Z,129.38
2022-10-23T10:01:36.726Z,129.38
2022-10-23T10:02:36.569Z,129.38
2022-10-23T10:03:36.534Z,129.38
2022-10-23T10:04:36.542Z,129.38
2022-10-23T10:05:36.509Z,129.38
2022-10-23T10:06:36.552Z,129.38
2022-10-23T10:07:36.857Z,129.38
2022-10-23T10:08:36.468Z,129.38
2022-10-23T10:09:36.478Z,135.00
2022-10-23T10:10:36.454Z,140.62
2022-10-23T10:11:36.450Z,157.50
2022-10-23T10:12:36.614Z,180.00
2022-10-23T10:13:36.440Z,174.38
2022-10-23T10:14:36.406Z,185.62
2022-10-23T10:15:36.413Z,185.62
2022-10-23T10:16:36.442Z,185.62
2022-10-23T10:17:36.396Z,168.75
2022-10-23T10:18:36.421Z,163.12
2022-10-23T10:19:36.369Z,168.75
2022-10-23T10:20:36.350Z,157.50
2022-10-23T10:21:36.340Z,163.12
2022-10-23T10:22:36.349Z,157.50
2022-10-23T10:23:36.307Z,163.12
2022-10-23T10:24:36.321Z,163.12
2022-10-23T10:25:36.293Z,163.12
2022-10-23T10:26:36.300Z,157.50
2022-10-23T10:27:36.282Z,151.88
2022-10-23T10:28:36.267Z,146.25
2022-10-23T10:29:36.244Z,146.25
2022-10-23T10:30:36.306Z,146.25
2022-10-23T10:31:36.219Z,140.62
2022-10-23T10:32:36.219Z,140.62
2022-10-23T10:33:36.207Z,146.25
2022-10-23T10:34:36.300Z,140.62
2022-10-23T10:35:37.065Z,146.25
2022-10-23T10:36:36.165Z,146.25
2022-10-23T10:37:36.168Z,151.88
2022-10-23T10:38:36.145Z,146.25
2022-10-23T10:39:36.293Z,146.25
2022-10-23T10:40:36.616Z,146.25
2022-10-23T10:41:36.274Z,140.62
2022-10-23T10:42:36.173Z,140.62
2022-10-23T10:43:36.210Z,135.00
2022-10-23T10:44:36.094Z,129.38
2022-10-23T10:45:36.084Z,129.38
2022-10-23T10:46:38.047Z,129.38
2022-10-23T10:47:36.055Z,129.38
2022-10-23T10:48:36.546Z,123.75
2022-10-23T10:49:37.563Z,123.75
2022-10-23T10:50:36.039Z,118.12
2022-10-23T10:51:36.025Z,118.12
2022-10-23T10:52:36.132Z,118.12
2022-10-23T10:53:36.587Z,118.12
2022-10-23T10:54:36.049Z,112.50
2022-10-23T10:55:36.002Z,112.50
2022-10-23T10:56:36.062Z,112.50
2022-10-23T10:57:36.620Z,112.50
2022-10-23T10:58:35.963Z,118.12
2022-10-23T10:59:35.924Z,123.75
2022-10-23T11:00:35.916Z,123.75
2022-10-23T11:01:36.018Z,123.75
2022-10-23T11:02:36.015Z,123.75
2022-10-23T11:03:39.028Z,112.50
2022-10-23T11:04:35.870Z,101.25
2022-10-23T11:05:35.865Z,112.50
2022-10-23T11:06:35.971Z,118.12
2022-10-23T11:07:35.840Z,146.25
2022-10-23T11:08:44.591Z,163.12
2022-10-23T11:09:36.825Z,163.12
2022-10-23T11:10:35.817Z,163.12
2022-10-23T11:11:35.801Z,151.88
2022-10-23T11:12:35.789Z,151.88
2022-10-23T11:13:35.777Z,157.50
2022-10-23T11:14:35.781Z,163.12
2022-10-23T11:15:35.745Z,168.75
2022-10-23T11:16:35.751Z,180.00
2022-10-23T11:17:35.728Z,180.00
2022-10-23T11:18:35.710Z,180.00
2022-10-23T11:19:35.722Z,180.00
2022-10-23T11:20:35.712Z,180.00
2022-10-23T11:21:35.714Z,180.00
2022-10-23T11:22:35.694Z,174.38
2022-10-23T11:23:35.660Z,168.75
2022-10-23T11:24:35.669Z,168.75
2022-10-23T11:25:35.666Z,168.75
2022-10-23T11:26:35.623Z,163.12
2022-10-23T11:27:35.614Z,168.75
2022-10-23T11:28:35.628Z,168.75
2022-10-23T11:29:35.603Z,168.75
2022-10-23T11:30:35.593Z,174.38
2022-10-23T11:31:35.606Z,174.38
2022-10-23T11:32:35.578Z,180.00
2022-10-23T11:33:35.597Z,180.00
2022-10-23T11:34:35.579Z,180.00
2022-10-23T11:35:35.528Z,174.38
2022-10-23T11:36:35.517Z,174.38
2022-10-23T11:37:35.649Z,168.75
2022-10-23T11:38:35.522Z,163.12
2022-10-23T11:39:35.488Z,163.12
2022-10-23T11:40:35.482Z,146.25
2022-10-23T11:41:35.474Z,140.62
2022-10-23T11:42:35.465Z,135.00
2022-10-23T11:43:35.465Z,129.38
2022-10-23T11:44:35.439Z,129.38
2022-10-23T11:45:35.427Z,129.38
2022-10-23T11:46:44.637Z,129.38
2022-10-23T11:47:39.783Z,123.75
2022-10-23T11:48:36.411Z,123.75
2022-10-23T11:49:35.370Z,123.75
2022-10-23T11:50:35.360Z,123.75
2022-10-23T11:51:35.371Z,123.75
2022-10-23T11:52:41.966Z,123.75
2022-10-23T11:53:36.339Z,118.12
2022-10-23T11:54:35.346Z,112.50
2022-10-23T11:55:35.330Z,118.12
2022-10-23T11:56:35.317Z,118.12
2022-10-23T11:57:35.292Z,118.12
2022-10-23T11:58:35.275Z,123.75
2022-10-23T11:59:35.275Z,123.75
2022-10-23T12:00:35.259Z,123.75
2022-10-23T12:01:35.335Z,123.75
2022-10-23T12:02:35.266Z,123.75
2022-10-23T12:03:35.221Z,129.38
2022-10-23T12:04:35.212Z,135.00
2022-10-23T12:05:35.206Z,135.00
2022-10-23T12:06:35.203Z,135.00
2022-10-23T12:07:35.193Z,140.62
2022-10-23T12:08:35.168Z,146.25
2022-10-23T12:09:35.157Z,140.62
2022-10-23T12:10:35.170Z,140.62
2022-10-23T12:11:35.150Z,140.62
2022-10-23T12:12:35.163Z,135.00
2022-10-23T12:13:35.115Z,129.38
2022-10-23T12:14:35.108Z,129.38
2022-10-23T12:15:35.101Z,129.38
2022-10-23T12:16:35.082Z,123.75
2022-10-23T12:17:35.104Z,118.12
2022-10-23T12:18:35.061Z,112.50
2022-10-23T12:19:35.055Z,106.88
2022-10-23T12:20:35.039Z,95.62
2022-10-23T12:21:35.034Z,95.62
2022-10-23T12:23:35.089Z,101.25
2022-10-23T12:24:34.994Z,101.25
2022-10-23T12:25:35.107Z,95.62
2022-10-23T12:26:34.996Z,95.62
2022-10-23T12:27:34.970Z,95.62
2022-10-23T12:28:35.151Z,95.62
2022-10-23T12:29:34.958Z,95.62
2022-10-23T12:30:34.950Z,90.00
2022-10-23T12:31:34.925Z,84.38
2022-10-23T12:32:34.928Z,78.75
2022-10-23T12:33:34.901Z,78.75
2022-10-23T12:34:34.910Z,78.75
2022-10-23T12:35:35.018Z,78.75
2022-10-23T12:36:34.869Z,78.75
2022-10-23T12:37:34.864Z,78.75
2022-10-23T12:38:36.338Z,78.75
2022-10-23T12:39:34.841Z,84.38
2022-10-23T12:40:34.834Z,84.38
2022-10-23T12:41:34.834Z,84.38
2022-10-23T12:42:34.842Z,84.38
2022-10-23T12:43:34.794Z,90.00
2022-10-23T12:44:34.786Z,90.00
2022-10-23T12:45:34.782Z,90.00
2022-10-23T12:46:34.762Z,95.62
2022-10-23T12:47:34.770Z,95.62
2022-10-23T12:48:34.758Z,101.25
2022-10-23T12:49:34.729Z,101.25
2022-10-23T12:50:34.727Z,101.25
2022-10-23T12:51:34.720Z,101.25
2022-10-23T12:52:34.692Z,101.25
2022-10-23T12:53:34.679Z,101.25
2022-10-23T12:54:34.693Z,101.25
2022-10-23T12:55:36.004Z,95.62
2022-10-23T12:56:35.358Z,95.62
2022-10-23T12:57:34.651Z,95.62
2022-10-23T12:58:34.650Z,95.62
2022-10-23T12:59:34.629Z,95.62
2022-10-23T13:00:34.612Z,90.00
2022-10-23T13:01:34.762Z,90.00
2022-10-23T13:02:34.731Z,84.38
2022-10-23T13:03:34.583Z,84.38
2022-10-23T13:04:34.561Z,84.38
2022-10-23T13:05:34.554Z,84.38
2022-10-23T13:06:34.550Z,84.38
2022-10-23T13:07:34.559Z,84.38
2022-10-23T13:08:34.532Z,78.75
2022-10-23T13:09:34.514Z,78.75
2022-10-23T13:10:34.499Z,78.75
2022-10-23T13:11:34.498Z,78.75
2022-10-23T13:12:34.504Z,78.75
2022-10-23T13:13:34.491Z,84.38
2022-10-23T13:14:34.473Z,78.75
2022-10-23T13:15:34.443Z,78.75
2022-10-23T13:16:34.444Z,78.75
2022-10-23T13:17:34.430Z,78.75
2022-10-23T13:18:34.419Z,78.75
2022-10-23T13:19:34.418Z,73.12
2022-10-23T13:20:34.396Z,73.12
2022-10-23T13:21:34.385Z,73.12
2022-10-23T13:22:34.371Z,73.12
2022-10-23T13:23:34.373Z,73.12
2022-10-23T13:24:34.349Z,73.12
2022-10-23T13:25:34.366Z,73.12
2022-10-23T13:26:34.329Z,73.12
2022-10-23T13:27:34.318Z,73.12
2022-10-23T13:28:34.312Z,73.12
2022-10-23T13:29:34.293Z,78.75
2022-10-23T13:30:34.300Z,78.75
2022-10-23T13:31:34.299Z,84.38
2022-10-23T13:32:34.270Z,84.38
2022-10-23T13:33:34.260Z,90.00
2022-10-23T13:34:34.253Z,90.00
2022-10-23T13:35:34.272Z,90.00
2022-10-23T13:36:34.223Z,95.62
2022-10-23T13:37:34.269Z,95.62
2022-10-23T13:38:34.198Z,95.62
2022-10-23T13:39:34.187Z,95.62
2022-10-23T13:40:34.199Z,95.62
2022-10-23T13:41:34.175Z,90.00
2022-10-23T13:42:34.161Z,84.38
2022-10-23T13:43:34.160Z,78.75
2022-10-23T13:44:34.128Z,78.75
2022-10-23T13:45:34.123Z,73.12
2022-10-23T13:46:34.134Z,73.12
2022-10-23T13:47:34.111Z,73.12
2022-10-23T13:48:34.109Z,67.50
2022-10-23T13:49:34.076Z,67.50
2022-10-23T13:50:34.073Z,67.50
2022-10-23T13:51:36.617Z,67.50
2022-10-23T13:52:35.061Z,67.50
2022-10-23T13:53:34.081Z,67.50
2022-10-23T13:54:34.024Z,67.50
2022-10-23T13:55:34.019Z,67.50
2022-10-23T13:56:34.019Z,67.50
2022-10-23T13:57:33.994Z,67.50
2022-10-23T13:58:33.988Z,61.88
2022-10-23T13:59:33.988Z,61.88
2022-10-23T14:00:33.963Z,67.50
2022-10-23T14:01:34.054Z,67.50
2022-10-23T14:02:33.996Z,67.50
2022-10-23T14:03:33.933Z,67.50
2022-10-23T14:04:33.928Z,67.50
2022-10-23T14:05:33.920Z,67.50
2022-10-23T14:06:33.903Z,67.50
2022-10-23T14:07:33.883Z,67.50
2022-10-23T14:08:33.871Z,61.88
2022-10-23T14:09:33.871Z,56.25
2022-10-23T14:10:33.877Z,56.25
2022-10-23T14:11:33.848Z,50.62
2022-10-23T14:12:33.833Z,50.62
2022-10-23T14:13:33.834Z,50.62
2022-10-23T14:14:33.813Z,45.00
2022-10-23T14:15:33.799Z,45.00
2022-10-23T14:16:33.803Z,45.00
2022-10-23T14:17:33.793Z,45.00
2022-10-23T14:18:33.791Z,45.00
2022-10-23T14:19:33.825Z,45.00
2022-10-23T14:20:33.785Z,45.00
2022-10-23T14:21:33.739Z,45.00
2022-10-23T14:22:33.741Z,45.00
2022-10-23T14:23:33.718Z,45.00
2022-10-23T14:24:33.712Z,45.00
2022-10-23T14:25:33.723Z,45.00
2022-10-23T14:26:33.696Z,45.00
2022-10-23T14:27:33.675Z,39.38
2022-10-23T14:28:33.709Z,45.00
2022-10-23T14:29:33.657Z,45.00
2022-10-23T14:30:33.680Z,45.00
2022-10-23T14:31:33.646Z,45.00
2022-10-23T14:32:33.635Z,45.00
2022-10-23T14:33:33.614Z,45.00
2022-10-23T14:34:33.633Z,45.00
2022-10-23T14:35:33.596Z,45.00
2022-10-23T14:36:43.208Z,45.00
2022-10-23T14:37:34.597Z,45.00
2022-10-23T14:38:33.567Z,45.00
2022-10-23T14:39:33.552Z,45.00
2022-10-23T14:40:33.528Z,45.00
2022-10-23T14:41:33.527Z,45.00
2022-10-23T14:42:33.957Z,45.00
2022-10-23T14:43:33.518Z,45.00
2022-10-23T14:44:33.565Z,45.00
2022-10-23T14:45:33.533Z,39.38
2022-10-23T14:46:33.470Z,39.38
2022-10-23T14:47:33.465Z,39.38
2022-10-23T14:48:33.444Z,39.38
2022-10-23T14:49:33.467Z,39.38
2022-10-23T14:50:33.448Z,33.75
2022-10-23T14:51:33.421Z,33.75
2022-10-23T14:52:33.421Z,33.75
2022-10-23T14:53:33.413Z,33.75
2022-10-23T14:54:33.383Z,33.75
2022-10-23T14:55:33.384Z,33.75
2022-10-23T14:56:33.357Z,28.12
2022-10-23T14:57:33.352Z,28.12
2022-10-23T14:58:33.361Z,28.12
2022-10-23T14:59:33.342Z,28.12
2022-10-23T15:00:33.338Z,28.12
2022-10-23T15:01:33.484Z,28.12
2022-10-23T15:02:33.305Z,22.50
2022-10-23T15:03:33.283Z,22.50
2022-10-23T15:04:33.281Z,22.50
2022-10-23T15:05:33.277Z,22.50
2022-10-23T15:06:33.273Z,22.50
2022-10-23T15:07:33.268Z,22.50
2022-10-23T15:08:33.237Z,22.50
2022-10-23T15:09:33.223Z,22.50
2022-10-23T15:10:33.214Z,22.50
2022-10-23T15:11:33.213Z,22.50
2022-10-23T15:12:33.214Z,22.50
2022-10-23T15:13:33.185Z,16.88
2022-10-23T15:14:33.177Z,16.88
2022-10-23T15:15:33.171Z,16.88
2022-10-23T15:16:33.148Z,16.88
2022-10-23T15:17:33.157Z,16.88
2022-10-23T15:18:33.188Z,16.88
2022-10-23T15:19:33.132Z,11.25
2022-10-23T15:20:33.121Z,11.25
2022-10-23T15:21:33.115Z,11.25
2022-10-23T15:22:33.107Z,11.25
2022-10-23T15:23:33.092Z,11.25
2022-10-23T15:24:33.061Z,11.25
2022-10-23T15:25:33.063Z,11.25
2022-10-23T15:26:33.050Z,11.25
2022-10-23T15:27:33.054Z,11.25
2022-10-23T15:28:33.082Z,11.25
2022-10-23T15:29:33.021Z,5.62
2022-10-23T15:30:33.002Z,5.62
2022-10-23T15:31:32.989Z,5.62
2022-10-23T15:32:32.985Z,5.62
2022-10-23T15:33:32.982Z,5.62
2022-10-23T15:34:32.960Z,5.62
2022-10-23T15:35:32.943Z,5.62
2022-10-23T15:36:32.937Z,5.62
2022-10-23T15:37:32.928Z,5.62
2022-10-23T15:38:32.948Z,5.62
2022-10-23T15:39:32.923Z,5.62
2022-10-23T15:40:33.058Z,0.00
2022-10-23T15:41:32.880Z,0.00
2022-10-23T15:42:32.863Z,0.00
2022-10-23T15:43:32.863Z,0.00
2022-10-23T15:44:32.855Z,0.00
2022-10-23T15:45:32.832Z,0.00
2022-10-23T15:46:32.838Z,0.00
2022-10-23T15:47:32.822Z,0.00
2022-10-23T15:48:32.798Z,0.00
2022-10-23T15:49:32.800Z,0.00
2022-10-23T15:50:32.791Z,0.00
2022-10-23T15:51:32.775Z,0.00
2022-10-23T15:52:32.779Z,0.00
2022-10-23T15:53:32.759Z,0.00
2022-10-23T15:54:33.046Z,0.00
2022-10-23T15:55:32.737Z,0.00
2022-10-23T15:56:32.748Z,0.00
2022-10-23T15:57:32.710Z,0.00
2022-10-23T15:58:32.705Z,0.00
2022-10-23T15:59:32.685Z,0.00
2022-10-23T16:00:32.712Z,0.00
2022-10-23T16:01:32.801Z,0.00
2022-10-23T16:02:32.824Z,0.00
2022-10-23T16:03:32.655Z,0.00
2022-10-23T16:04:32.685Z,0.00
2022-10-23T16:05:32.680Z,0.00
2022-10-23T16:06:32.709Z,0.00
2022-10-23T16:07:32.649Z,0.00
2022-10-23T16:08:32.606Z,0.00
2022-10-23T16:09:32.585Z,0.00
2022-10-23T16:10:32.590Z,0.00
2022-10-23T16:11:32.556Z,0.00
2022-10-23T16:12:32.567Z,0.00
2022-10-23T16:13:32.613Z,0.00
2022-10-23T16:14:32.532Z,0.00
2022-10-23T16:15:32.519Z,0.00
2022-10-23T16:16:32.509Z,0.00
2022-10-23T16:17:32.497Z,0.00
2022-10-23T16:18:32.517Z,0.00
2022-10-23T16:19:32.502Z,0.00
2022-10-23T16:20:32.465Z,0.00
2022-10-23T16:21:32.447Z,0.00
2022-10-23T16:22:32.435Z,0.00
2022-10-23T16:23:32.428Z,0.00
2022-10-23T16:24:32.446Z,0.00
2022-10-23T16:26:32.411Z,0.00
2022-10-23T16:27:32.382Z,0.00
2022-10-23T16:28:32.389Z,0.00
2022-10-23T16:29:32.366Z,0.00
2022-10-23T16:30:32.369Z,0.00
2022-10-23T16:31:32.346Z,0.00
2022-10-23T16:32:32.342Z,0.00
2022-10-23T16:33:32.326Z,0.00
2022-10-23T16:34:32.361Z,0.00
2022-10-23T16:35:32.298Z,0.00
2022-10-23T16:36:32.284Z,0.00
2022-10-23T16:37:32.282Z,0.00
2022-10-23T16:38:32.297Z,0.00
2022-10-23T16:39:32.261Z,0.00
2022-10-23T16:40:32.247Z,0.00
2022-10-23T16:41:32.235Z,0.00
2022-10-23T16:42:32.233Z,0.00
2022-10-23T16:43:32.257Z,0.00
2022-10-23T16:44:32.209Z,0.00
2022-10-23T16:45:34.454Z,0.00
2022-10-23T16:46:32.183Z,0.00
2022-10-23T16:47:32.169Z,0.00
2022-10-23T16:48:32.152Z,0.00
2022-10-23T16:49:32.194Z,0.00
2022-10-23T16:50:32.156Z,0.00
2022-10-23T16:51:32.132Z,0.00
2022-10-23T16:52:32.127Z,0.00
2022-10-23T16:53:32.103Z,0.00
2022-10-23T16:54:32.096Z,0.00
2022-10-23T16:55:32.083Z,0.00
2022-10-23T16:56:32.076Z,0.00
2022-10-23T16:57:32.061Z,0.00
2022-10-23T16:58:32.074Z,0.00
2022-10-23T16:59:32.054Z,0.00
2022-10-23T17:00:32.052Z,0.00
2022-10-23T17:01:32.099Z,0.00
2022-10-23T17:02:32.128Z,0.00
2022-10-23T17:03:32.000Z,0.00
2022-10-23T17:04:31.980Z,0.00
2022-10-23T17:05:31.996Z,0.00
2022-10-23T17:06:31.965Z,0.00
2022-10-23T17:07:31.959Z,0.00
2022-10-23T17:08:31.979Z,0.00
2022-10-23T17:09:31.947Z,0.00
2022-10-23T17:10:31.917Z,0.00
2022-10-23T17:11:31.896Z,0.00
2022-10-23T17:12:31.892Z,0.00
2022-10-23T17:13:31.932Z,0.00
2022-10-23T17:14:31.920Z,0.00
2022-10-23T17:15:31.941Z,0.00
2022-10-23T17:16:31.853Z,0.00
2022-10-23T17:17:31.836Z,0.00
2022-10-23T17:18:31.837Z,0.00
2022-10-23T17:19:44.186Z,0.00
2022-10-23T17:20:32.832Z,0.00
2022-10-23T17:21:31.787Z,0.00
2022-10-23T17:22:31.785Z,0.00
2022-10-23T17:23:31.789Z,0.00
2022-10-23T17:24:31.805Z,0.00
2022-10-23T17:25:31.779Z,0.00
2022-10-23T17:26:31.746Z,0.00
2022-10-23T17:27:31.754Z,0.00
2022-10-23T17:28:31.715Z,0.00
2022-10-23T17:29:31.711Z,0.00
2022-10-23T17:30:31.725Z,0.00
2022-10-23T17:31:31.690Z,0.00
2022-10-23T17:32:31.680Z,0.00
2022-10-23T17:33:31.682Z,0.00
2022-10-23T17:34:31.655Z,0.00
2022-10-23T17:35:31.683Z,0.00
2022-10-23T17:36:31.630Z,0.00
2022-10-23T17:37:31.648Z,0.00
2022-10-23T17:38:31.619Z,0.00
2022-10-23T17:39:31.605Z,0.00
2022-10-23T17:40:31.591Z,0.00
2022-10-23T17:41:31.577Z,0.00
2022-10-23T17:42:31.582Z,0.00
2022-10-23T17:43:31.579Z,0.00
2022-10-23T17:44:31.545Z,0.00
2022-10-23T17:45:31.558Z,0.00
2022-10-23T17:46:31.538Z,0.00
2022-10-23T17:47:40.799Z,0.00
2022-10-23T17:48:31.497Z,0.00
2022-10-23T17:49:31.482Z,0.00
2022-10-23T17:50:31.490Z,0.00
2022-10-23T17:51:31.459Z,0.00
2022-10-23T17:52:31.442Z,0.00
2022-10-23T17:53:31.451Z,0.00
2022-10-23T17:54:31.418Z,0.00
2022-10-23T17:55:31.410Z,0.00
2022-10-23T17:56:31.426Z,0.00
2022-10-23T17:57:31.388Z,0.00
2022-10-23T17:58:31.379Z,0.00
2022-10-23T17:59:31.372Z,0.00
2022-10-23T18:00:31.392Z,0.00
2022-10-23T18:01:31.486Z,0.00
2022-10-23T18:02:31.446Z,0.00
2022-10-23T18:03:31.321Z,0.00
2022-10-23T18:04:31.316Z,0.00
2022-10-23T18:05:31.327Z,0.00
2022-10-23T18:06:31.312Z,0.00
2022-10-23T18:07:31.313Z,0.00
2022-10-23T18:08:31.263Z,0.00
2022-10-23T18:09:31.258Z,0.00
2022-10-23T18:10:31.251Z,0.00
2022-10-23T18:11:31.234Z,0.00
2022-10-23T18:12:31.223Z,0.00
2022-10-23T18:13:31.240Z,0.00
2022-10-23T18:14:33.291Z,0.00
2022-10-23T18:15:31.190Z,0.00
2022-10-23T18:16:31.178Z,0.00
2022-10-23T18:17:31.218Z,0.00
2022-10-23T18:18:31.190Z,0.00
2022-10-23T18:19:31.144Z,0.00
2022-10-23T18:20:31.142Z,0.00
2022-10-23T18:21:31.821Z,0.00
2022-10-23T18:22:31.113Z,0.00
2022-10-23T18:23:31.145Z,0.00
2022-10-23T18:24:31.115Z,0.00
2022-10-23T18:25:31.086Z,0.00
2022-10-23T18:26:31.087Z,0.00
2022-10-23T18:27:31.065Z,0.00
2022-10-23T18:28:31.051Z,0.00
2022-10-23T18:29:31.057Z,0.00
2022-10-23T18:30:31.102Z,0.00
2022-10-23T18:31:31.019Z,0.00
2022-10-23T18:32:31.009Z,0.00
2022-10-23T18:33:31.017Z,0.00
2022-10-23T18:34:31.004Z,0.00
2022-10-23T18:35:30.967Z,0.00
2022-10-23T18:36:30.965Z,0.00
2022-10-23T18:37:33.876Z,0.00
2022-10-23T18:38:30.935Z,0.00
2022-10-23T18:39:30.947Z,0.00
2022-10-23T18:40:30.920Z,0.00